Time;durP1;ratioP1;P1;durP2;ratioP2;P2;SDS_P1;SDS_P2;PMS_P1;PMS_P2;Temp;Humidity;BMP_temperature;BMP_pressure;BME280_temperature;BME280_humidity;BME280_pressure;Samples;Min_cycle;Max_cycle;Signal;HPM_P1;HPM_P2
2023/09/30 00:01:22;;;;;;;5.97;4.73;;;;;;;18.50;81.08;96214.31;4375837;32;20219;-58
2023/09/30 00:03:50;;;;;;;5.30;3.97;;;;;;;18.43;80.87;96222.13;4361027;32;20188;-59
2023/09/30 00:06:17;;;;;;;4.23;3.93;;;;;;;18.38;80.87;96209.62;4366261;32;20195;-59
2023/09/30 00:08:47;;;;;;;5.27;4.43;;;;;;;18.43;79.93;96211.38;4345163;32;20261;-58
2023/09/30 00:11:16;;;;;;;4.33;3.93;;;;;;;18.37;79.97;96209.94;4363334;32;20249;-59
2023/09/30 00:13:43;;;;;;;4.53;4.13;;;;;;;18.38;79.82;96209.62;4365832;32;20181;-58
2023/09/30 00:16:10;;;;;;;8.20;4.20;;;;;;;18.39;81.90;96210.44;4356452;32;20189;-59
2023/09/30 00:18:36;;;;;;;5.30;4.80;;;;;;;18.32;80.37;96218.19;4381188;32;20268;-59
2023/09/30 00:21:02;;;;;;;4.00;3.67;;;;;;;18.41;80.85;96214.38;4378591;32;20223;-59
2023/09/30 00:23:29;;;;;;;3.20;3.00;;;;;;;18.38;80.30;96228.44;4377631;32;20189;-59
2023/09/30 00:25:55;;;;;;;4.20;3.03;;;;;;;18.23;80.93;96234.34;4315453;32;20197;-59
2023/09/30 00:28:22;;;;;;;5.20;4.57;;;;;;;18.34;81.15;96234.78;4343868;32;20191;-60
2023/09/30 00:30:47;;;;;;;3.93;3.63;;;;;;;18.34;82.53;96243.63;4351134;32;20198;-59
2023/09/30 00:33:13;;;;;;;6.17;4.93;;;;;;;18.32;82.02;96237.78;4345634;32;20232;-59
2023/09/30 00:35:38;;;;;;;3.67;3.47;;;;;;;18.36;81.73;96235.25;4327620;32;20178;-59
2023/09/30 00:38:04;;;;;;;3.73;3.43;;;;;;;18.40;82.25;96238.88;4343663;32;20240;-59
2023/09/30 00:40:29;;;;;;;4.90;4.43;;;;;;;18.33;81.78;96233.97;4363235;32;20200;-59
2023/09/30 00:42:55;;;;;;;5.60;4.27;;;;;;;18.44;82.77;96243.28;4350259;32;20222;-59
2023/09/30 00:45:23;;;;;;;4.33;4.03;;;;;;;18.40;80.64;96242.34;4372845;32;20180;-60
2023/09/30 00:47:51;;;;;;;3.27;3.07;;;;;;;18.36;82.39;96235.25;4348022;32;20207;-59
2023/09/30 00:50:21;;;;;;;4.23;3.47;;;;;;;18.27;82.20;96229.91;4362657;32;20244;-59
2023/09/30 00:52:48;;;;;;;4.57;4.27;;;;;;;18.38;83.54;96230.34;4357102;32;20255;-59
2023/09/30 00:55:15;;;;;;;11.27;5.23;;;;;;;18.26;83.30;96230.22;4346324;32;20185;-59
2023/09/30 00:57:44;;;;;;;5.67;3.83;;;;;;;18.18;81.86;96239.88;4331037;32;20218;-59
2023/09/30 01:00:13;;;;;;;5.73;3.80;;;;;;;18.27;82.92;96229.91;4381376;32;20189;-59
2023/09/30 01:02:44;;;;;;;9.40;4.70;;;;;;;18.26;82.88;96233.69;4363923;32;20184;-59
2023/09/30 01:05:11;;;;;;;6.67;5.33;;;;;;;18.16;81.95;96239.41;4352168;32;20211;-59
2023/09/30 01:07:37;;;;;;;11.37;4.47;;;;;;;18.20;82.47;96238.44;4348749;32;20177;-60
2023/09/30 01:10:05;;;;;;;5.27;4.17;;;;;;;18.26;82.46;96240.97;4338534;32;20185;-59
2023/09/30 01:12:32;;;;;;;3.87;3.60;;;;;;;18.26;83.03;96244.44;4386284;32;20196;-59
2023/09/30 01:15:06;;;;;;;4.93;4.17;;;;;;;18.20;83.25;96246.50;4367247;32;20190;-59
2023/09/30 01:17:32;;;;;;;6.77;4.53;;;;;;;18.27;83.61;96251.41;4343770;32;20195;-59
2023/09/30 01:20:00;;;;;;;4.73;3.40;;;;;;;18.29;83.98;96249.16;4369616;32;20168;-59
2023/09/30 01:22:28;;;;;;;4.67;4.27;;;;;;;18.34;83.57;96250.87;4360651;32;20180;-60
2023/09/30 01:24:55;;;;;;;6.97;4.30;;;;;;;18.24;83.10;96246.66;4354359;32;20201;-59
2023/09/30 01:27:21;;;;;;;4.83;3.83;;;;;;;18.22;82.55;96235.44;4360132;32;20346;-58
2023/09/30 01:29:50;;;;;;;5.00;4.60;;;;;;;18.21;84.47;96231.19;4379285;32;20193;-60
2023/09/30 01:32:16;;;;;;;3.77;3.50;;;;;;;18.19;83.15;96236.88;4372997;32;20177;-59
2023/09/30 01:34:42;;;;;;;4.97;3.83;;;;;;;18.16;82.67;96234.03;4363532;32;20195;-59
2023/09/30 01:37:09;;;;;;;4.70;4.30;;;;;;;18.22;84.27;96230.06;4359567;32;20260;-59
2023/09/30 01:39:36;;;;;;;11.03;4.60;;;;;;;18.19;83.37;96228.03;4374554;32;20199;-59
2023/09/30 01:42:03;;;;;;;4.30;3.53;;;;;;;18.21;83.95;96231.19;4354837;32;20193;-59
2023/09/30 01:44:32;;;;;;;8.83;5.50;;;;;;;18.26;83.85;96247.12;4355142;32;20181;-59
2023/09/30 01:47:00;;;;;;;4.33;4.03;;;;;;;18.21;84.14;96249.97;4335476;32;20180;-59
2023/09/30 01:49:27;;;;;;;4.63;4.30;;;;;;;18.18;83.79;96247.94;4344200;32;20192;-59
2023/09/30 01:51:54;;;;;;;11.50;3.33;;;;;;;18.26;84.05;96247.12;4336215;32;20352;-59
2023/09/30 01:54:21;;;;;;;6.67;4.93;;;;;;;18.14;84.38;96246.97;4360178;32;20336;-60
2023/09/30 01:56:47;;;;;;;5.23;4.73;;;;;;;18.12;82.96;96238.44;4351774;32;20204;-59
2023/09/30 01:59:16;;;;;;;4.23;3.83;;;;;;;18.20;84.23;96254.56;4375861;32;20216;-59
2023/09/30 02:01:45;;;;;;;4.70;4.30;;;;;;;18.14;84.35;96249.66;4355846;32;20248;-59
2023/09/30 02:04:15;;;;;;;8.00;5.27;;;;;;;18.15;83.52;96245.88;4363040;32;20208;-59
2023/09/30 02:06:41;;;;;;;8.17;5.37;;;;;;;18.13;84.95;96246.19;4360852;32;20242;-59
2023/09/30 02:09:09;;;;;;;4.83;3.97;;;;;;;18.18;84.58;96242.56;4369201;32;20193;-59
2023/09/30 02:11:37;;;;;;;4.83;4.37;;;;;;;18.19;83.70;96234.19;4332364;32;20249;-59
2023/09/30 02:14:06;;;;;;;4.80;3.93;;;;;;;18.06;84.38;96234.38;4362522;32;20259;-59
2023/09/30 02:16:31;;;;;;;7.40;5.33;;;;;;;18.04;84.76;96234.69;4372612;32;20183;-59
2023/09/30 02:18:59;;;;;;;4.93;4.43;;;;;;;18.08;85.24;96246.34;4348776;32;20173;-59
2023/09/30 02:21:28;;;;;;;4.90;4.50;;;;;;;18.12;84.37;96247.28;4315655;32;20231;-59
2023/09/30 02:23:54;;;;;;;4.30;4.00;;;;;;;18.03;84.46;96238.47;4344780;32;20288;-59
2023/09/30 02:26:22;;;;;;;4.73;3.87;;;;;;;18.03;84.71;96241.16;4365261;32;20282;-59
2023/09/30 02:28:47;;;;;;;9.50;5.17;;;;;;;18.06;85.15;96240.53;4354195;32;20185;-60
2023/09/30 02:31:17;;;;;;;5.30;4.33;;;;;;;18.09;84.44;96237.19;4351114;32;20289;-59
2023/09/30 02:33:48;;;;;;;5.53;3.73;;;;;;;18.04;85.22;96240.06;4352491;32;20251;-59
2023/09/30 02:36:15;;;;;;;4.70;3.93;;;;;;;18.09;85.38;96241.75;4336154;32;20271;-59
2023/09/30 02:38:43;;;;;;;7.00;5.43;;;;;;;18.10;85.33;96240.66;4354130;32;20185;-59
2023/09/30 02:41:12;;;;;;;10.70;4.87;;;;;;;18.04;83.66;96237.38;4333708;32;20185;-59
2023/09/30 02:43:38;;;;;;;7.40;5.53;;;;;;;18.01;83.74;96243.37;4347966;32;20186;-59
2023/09/30 02:46:05;;;;;;;4.77;4.40;;;;;;;18.03;85.06;96240.38;4365719;32;20231;-59
2023/09/30 02:48:30;;;;;;;10.27;5.47;;;;;;;18.06;84.51;96237.06;4361258;32;20294;-59
2023/09/30 02:50:58;;;;;;;10.53;5.63;;;;;;;18.06;85.67;96247.78;4356814;32;20229;-59
2023/09/30 02:53:26;;;;;;;4.93;4.33;;;;;;;18.13;84.96;96245.41;4338868;32;20196;-59
2023/09/30 02:55:56;;;;;;;3.40;3.17;;;;;;;18.02;85.15;96249.53;4357429;32;20203;-58
2023/09/30 02:58:43;;;;;;;4.37;4.03;;;;;;;18.10;85.52;96241.44;4369148;32;20340;-59
2023/09/30 03:01:09;;;;;;;5.73;4.70;;;;;;;18.05;84.97;96241.63;4372055;32;20188;-60
2023/09/30 03:03:36;;;;;;;6.70;3.93;;;;;;;18.06;84.16;96237.06;4369377;32;20234;-59
2023/09/30 03:06:01;;;;;;;4.70;4.37;;;;;;;18.17;84.93;96244.44;4362262;32;20180;-59
2023/09/30 03:08:28;;;;;;;4.67;4.27;;;;;;;18.11;84.95;96242.25;4377196;32;20191;-60
2023/09/30 03:10:55;;;;;;;5.33;4.50;;;;;;;17.91;84.80;96243.69;4352082;32;20310;-60
2023/09/30 03:13:21;;;;;;;4.40;4.00;;;;;;;17.99;85.30;96247.47;4364574;32;20268;-59
2023/09/30 03:15:56;;;;;;;3.33;3.13;;;;;;;18.04;85.48;96244.63;4334781;32;20181;-59
2023/09/30 03:18:28;;;;;;;24.10;5.13;;;;;;;18.03;85.32;96245.75;4328368;32;20192;-60
2023/09/30 03:21:08;;;;;;;5.63;4.23;;;;;;;18.00;84.64;96241.00;4354714;32;20281;-59
2023/09/30 03:23:35;;;;;;;4.50;3.87;;;;;;;17.91;85.39;96249.06;4374149;32;20302;-59
2023/09/30 03:26:03;;;;;;;4.67;4.27;;;;;;;18.02;85.77;96244.94;4349522;32;20184;-60
2023/09/30 03:28:31;;;;;;;5.57;4.60;;;;;;;17.87;85.56;96235.47;4366533;32;20223;-59
2023/09/30 03:30:58;;;;;;;5.60;5.00;;;;;;;17.89;85.79;96245.09;4373997;32;20169;-59
2023/09/30 03:33:26;;;;;;;5.40;4.80;;;;;;;17.83;85.49;96253.34;4344345;32;20273;-59
2023/09/30 03:35:52;;;;;;;3.40;3.10;;;;;;;17.95;86.26;96251.91;4353248;32;20255;-59
2023/09/30 03:38:22;;;;;;;4.07;3.77;;;;;;;17.76;86.43;96253.00;4375229;32;20203;-59
2023/09/30 03:40:50;;;;;;;5.23;3.90;;;;;;;17.94;85.80;96253.00;4365886;32;20181;-59
2023/09/30 03:43:18;;;;;;;5.47;3.90;;;;;;;17.85;86.20;96259.19;4356793;32;20188;-59
2023/09/30 03:45:47;;;;;;;10.80;5.20;;;;;;;17.87;86.32;96261.56;4367164;32;20176;-59
2023/09/30 03:48:14;;;;;;;4.63;4.23;;;;;;;17.98;85.82;96252.06;4350656;32;20177;-59
2023/09/30 03:50:40;;;;;;;4.43;4.03;;;;;;;18.01;85.55;96254.12;4370107;32;20186;-59
2023/09/30 03:53:08;;;;;;;12.30;5.07;;;;;;;17.98;85.47;96249.38;4368207;32;20180;-59
2023/09/30 03:55:35;;;;;;;6.80;4.67;;;;;;;18.04;85.89;96252.69;4355834;32;20263;-59
2023/09/30 03:58:00;;;;;;;5.00;4.10;;;;;;;18.00;85.83;96249.06;4342525;32;20177;-60
2023/09/30 04:00:32;;;;;;;4.23;3.90;;;;;;;17.88;85.66;96249.69;4360056;32;20211;-59
2023/09/30 04:02:58;;;;;;;4.23;3.93;;;;;;;17.79;86.26;96257.75;4351629;32;20177;-60
2023/09/30 04:05:36;;;;;;;5.70;4.37;;;;;;;17.91;86.06;96250.94;4360835;32;20235;-58
2023/09/30 04:08:02;;;;;;;6.50;4.70;;;;;;;17.87;85.97;96248.88;4358768;32;20173;-60
2023/09/30 04:10:31;;;;;;;6.40;4.67;;;;;;;17.91;86.12;96250.94;4330962;32;20201;-59
2023/09/30 04:12:58;;;;;;;4.97;4.57;;;;;;;17.86;85.52;96246.56;4311207;32;20204;-59
2023/09/30 04:15:25;;;;;;;5.07;3.87;;;;;;;17.83;85.75;96247.97;4316856;32;20177;-59
2023/09/30 04:17:52;;;;;;;6.80;4.37;;;;;;;17.77;86.38;96248.44;4334939;32;20273;-60
2023/09/30 04:20:26;;;;;;;13.43;5.47;;;;;;;17.87;86.23;96247.34;4354766;32;20177;-59
2023/09/30 04:22:57;;;;;;;3.33;3.13;;;;;;;17.87;86.35;96248.88;4357156;32;20193;-59
2023/09/30 04:25:24;;;;;;;8.60;4.90;;;;;;;17.81;86.54;96250.19;4350223;32;20326;-59
2023/09/30 04:27:51;;;;;;;7.03;4.23;;;;;;;17.84;86.10;96252.22;4319904;32;20378;-59
2023/09/30 04:30:18;;;;;;;4.17;3.70;;;;;;;17.81;86.24;96258.22;4350615;32;20250;-59
2023/09/30 04:32:44;;;;;;;8.87;5.03;;;;;;;17.84;86.76;96244.19;4354947;32;20314;-59
2023/09/30 04:35:11;;;;;;;7.73;4.37;;;;;;;17.84;85.20;96254.91;4353482;32;20189;-59
2023/09/30 04:37:38;;;;;;;4.50;3.67;;;;;;;17.83;86.04;96253.34;4350472;32;20180;-59
2023/09/30 04:40:19;;;;;;;4.60;3.03;;;;;;;17.64;86.70;96252.88;4357529;32;20243;-60
2023/09/30 04:42:49;;;;;;;4.17;3.87;;;;;;;17.62;86.25;96256.94;4344730;32;20185;-59
2023/09/30 04:45:16;;;;;;;3.63;3.43;;;;;;;17.73;85.61;96261.69;4351543;32;20239;-59
2023/09/30 04:47:44;;;;;;;6.53;3.23;;;;;;;17.81;86.46;96260.91;4338447;32;20192;-59
2023/09/30 04:50:15;;;;;;;4.43;4.10;;;;;;;17.76;86.54;96265.66;4362667;32;20196;-60
2023/09/30 04:52:44;;;;;;;6.47;4.73;;;;;;;17.79;86.38;96273.87;4349526;32;20252;-59
2023/09/30 04:55:16;;;;;;;3.90;3.60;;;;;;;17.76;86.17;96273.69;4352695;32;20185;-59
2023/09/30 04:57:47;;;;;;;4.50;3.33;;;;;;;17.73;86.74;96274.31;4318728;32;20193;-59
2023/09/30 05:00:14;;;;;;;4.73;3.90;;;;;;;17.75;86.56;96283.66;4357362;32;20236;-59
2023/09/30 05:02:45;;;;;;;5.27;4.77;;;;;;;17.60;85.98;96270.66;4359206;32;20204;-59
2023/09/30 05:05:15;;;;;;;4.53;3.60;;;;;;;17.68;86.03;96272.56;4355188;32;20247;-58
2023/09/30 05:07:43;;;;;;;3.63;3.27;;;;;;;17.66;86.96;96274.03;4366071;32;20258;-59
2023/09/30 05:10:15;;;;;;;6.10;4.07;;;;;;;17.66;87.33;96276.69;4367609;32;20204;-59
2023/09/30 05:12:45;;;;;;;4.10;3.70;;;;;;;17.70;86.88;96275.75;4359790;32;20192;-59
2023/09/30 05:15:15;;;;;;;4.27;3.97;;;;;;;17.72;87.10;96276.22;4349023;32;20189;-59
2023/09/30 05:17:43;;;;;;;6.13;4.43;;;;;;;17.64;87.94;96287.75;4358858;32;20185;-59
2023/09/30 05:20:12;;;;;;;3.67;3.40;;;;;;;17.68;87.26;96291.38;4344705;32;20197;-59
2023/09/30 05:22:46;;;;;;;12.03;4.97;;;;;;;17.55;87.65;96303.00;4356166;32;20250;-59
2023/09/30 05:25:16;;;;;;;4.30;3.87;;;;;;;17.60;87.13;96296.72;4347331;32;20189;-59
2023/09/30 05:27:44;;;;;;;3.90;3.60;;;;;;;17.65;87.30;96289.34;4358699;32;20181;-59
2023/09/30 05:30:11;;;;;;;12.17;5.23;;;;;;;17.63;87.01;96296.87;4351024;32;20228;-59
2023/09/30 05:32:38;;;;;;;5.90;4.73;;;;;;;17.69;87.03;96295.63;4358307;32;20235;-59
2023/09/30 05:35:12;;;;;;;5.20;4.30;;;;;;;17.50;87.82;96287.06;4359511;32;20199;-59
2023/09/30 05:37:42;;;;;;;2.77;2.57;;;;;;;17.64;86.83;96292.31;4363237;32;20199;-58
2023/09/30 05:40:30;;;;;;;5.23;3.60;;;;;;;17.62;87.79;96289.94;4359056;32;20177;-60
2023/09/30 05:43:00;;;;;;;3.93;3.60;;;;;;;17.44;88.49;96293.69;4361028;32;20181;-58
2023/09/30 05:45:27;;;;;;;5.80;3.70;;;;;;;17.67;88.09;96289.78;4362867;32;20185;-59
2023/09/30 05:47:56;;;;;;;4.47;3.23;;;;;;;17.53;87.25;96303.31;4352939;32;20234;-59
2023/09/30 05:50:29;;;;;;;4.37;3.47;;;;;;;17.65;87.54;96310.81;4353237;32;20181;-59
2023/09/30 05:52:55;;;;;;;4.47;4.07;;;;;;;17.71;86.46;96319.47;4353396;32;20169;-59
2023/09/30 05:55:22;;;;;;;3.37;3.10;;;;;;;17.62;87.13;96322.13;4350731;32;20282;-59
2023/09/30 05:57:52;;;;;;;5.63;4.57;;;;;;;17.62;87.16;96330.19;4356276;32;20192;-59
2023/09/30 06:00:30;;;;;;;3.93;3.33;;;;;;;17.67;86.97;96327.34;4360054;32;20268;-59
2023/09/30 06:03:01;;;;;;;5.60;4.40;;;;;;;17.74;87.14;96333.06;4340980;32;20169;-59
2023/09/30 06:05:31;;;;;;;3.87;3.27;;;;;;;17.71;87.05;96325.63;4335979;32;20189;-59
2023/09/30 06:08:02;;;;;;;5.20;4.00;;;;;;;17.70;86.00;96323.25;4336726;32;20212;-60
2023/09/30 06:10:38;;;;;;;5.67;4.57;;;;;;;17.63;86.69;96318.34;4329820;32;20186;-59
2023/09/30 06:13:04;;;;;;;7.73;4.03;;;;;;;17.54;87.19;96322.88;4349035;32;20181;-61
2023/09/30 06:15:33;;;;;;;3.77;3.47;;;;;;;17.57;88.08;96322.28;4350604;32;20185;-59
2023/09/30 06:18:01;;;;;;;4.63;3.50;;;;;;;17.60;86.23;96324.34;4362737;32;20307;-59
2023/09/30 06:20:30;;;;;;;4.60;3.30;;;;;;;17.66;87.52;96315.06;4354988;32;20184;-59
2023/09/30 06:22:57;;;;;;;3.10;2.57;;;;;;;17.53;87.35;96319.41;4361427;32;20184;-59
2023/09/30 06:25:24;;;;;;;4.10;3.60;;;;;;;17.57;87.17;96313.44;4361377;32;20181;-59
2023/09/30 06:27:50;;;;;;;9.53;4.87;;;;;;;17.70;87.02;96325.94;4352177;32;20240;-59
2023/09/30 06:30:29;;;;;;;5.97;2.93;;;;;;;17.53;85.95;96335.53;4335699;32;20196;-58
2023/09/30 06:32:57;;;;;;;5.43;3.13;;;;;;;17.59;87.38;96330.81;4327878;32;20189;-58
2023/09/30 06:35:24;;;;;;;2.37;2.20;;;;;;;17.51;87.08;96332.34;4338535;32;20180;-59
2023/09/30 06:37:49;;;;;;;4.43;4.10;;;;;;;17.56;84.71;96347.53;4358234;32;20189;-59
2023/09/30 06:40:15;;;;;;;3.40;2.73;;;;;;;17.59;85.46;96352.28;4355802;32;20252;-59
2023/09/30 06:42:40;;;;;;;3.50;3.00;;;;;;;17.59;84.72;96365.69;4346909;32;20272;-59
2023/09/30 06:45:08;;;;;;;4.30;3.20;;;;;;;17.57;84.12;96367.09;4359252;32;20176;-58
2023/09/30 06:47:34;;;;;;;4.00;3.23;;;;;;;17.38;85.38;96367.34;4358512;32;20218;-62
2023/09/30 06:50:10;;;;;;;2.87;2.60;;;;;;;17.38;86.13;96364.69;4361626;32;20185;-59
2023/09/30 06:52:49;;;;;;;2.67;2.47;;;;;;;17.36;85.52;96350.78;4372728;32;20216;-58
2023/09/30 06:55:16;;;;;;;4.07;3.40;;;;;;;17.34;84.37;96358.34;4362045;32;20185;-59
2023/09/30 06:57:43;;;;;;;2.97;2.70;;;;;;;17.37;85.27;96358.53;4361010;32;20204;-59
2023/09/30 07:00:11;;;;;;;2.03;1.90;;;;;;;17.43;86.06;96370.69;4366110;32;20212;-59
2023/09/30 07:02:40;;;;;;;2.73;2.53;;;;;;;17.40;84.37;96368.62;4335230;32;20181;-59
2023/09/30 07:05:26;;;;;;;3.27;2.50;;;;;;;17.46;86.78;96377.31;4333723;32;20205;-59
2023/09/30 07:07:52;;;;;;;1.30;1.27;;;;;;;17.44;85.50;96374.97;4345366;32;20248;-60
2023/09/30 07:10:20;;;;;;;1.93;1.80;;;;;;;17.52;84.68;96376.88;4330646;32;20186;-59
2023/09/30 07:12:46;;;;;;;1.57;1.47;;;;;;;17.60;86.46;96375.31;4350195;32;20181;-58
2023/09/30 07:15:13;;;;;;;7.00;3.50;;;;;;;17.51;84.90;96387.91;4358237;32;20185;-59
2023/09/30 07:17:40;;;;;;;1.53;1.53;;;;;;;17.56;84.62;96382.41;4357443;32;20182;-58
2023/09/30 07:20:09;;;;;;;7.80;2.07;;;;;;;17.42;85.29;96377.16;4326228;32;20196;-59
2023/09/30 07:22:38;;;;;;;2.17;1.97;;;;;;;17.50;85.45;96386.31;4347164;32;20200;-59
2023/09/30 07:25:08;;;;;;;3.40;2.83;;;;;;;17.60;85.67;96391.44;4351305;32;20196;-63
2023/09/30 07:27:33;;;;;;;2.20;2.00;;;;;;;17.54;85.52;96376.56;4335624;32;20197;-61
2023/09/30 07:30:06;;;;;;;3.80;2.27;;;;;;;17.69;85.87;96386.88;4293949;32;20201;-59
2023/09/30 07:32:34;;;;;;;2.60;2.03;;;;;;;17.79;85.90;96391.19;4350677;32;20177;-59
2023/09/30 07:35:03;;;;;;;4.43;1.63;;;;;;;17.71;84.81;96400.78;4362110;32;20225;-60
2023/09/30 07:37:30;;;;;;;2.23;2.07;;;;;;;17.60;84.38;96394.09;4363758;32;20181;-59
2023/09/30 07:39:56;;;;;;;3.30;2.63;;;;;;;17.63;85.06;96398.06;4359436;32;20188;-60
2023/09/30 07:42:22;;;;;;;0.87;0.87;;;;;;;17.49;83.32;96411.56;4352763;32;20192;-59
2023/09/30 07:44:54;;;;;;;4.03;2.43;;;;;;;17.51;85.26;96409.38;4359393;32;20181;-59
2023/09/30 07:47:21;;;;;;;2.23;2.13;;;;;;;17.49;85.42;96419.63;4342494;32;20177;-59
2023/09/30 07:49:50;;;;;;;4.10;3.60;;;;;;;17.45;84.92;96419.47;4359290;32;20186;-59
2023/09/30 07:52:18;;;;;;;3.10;2.20;;;;;;;17.47;85.43;96416.47;4320139;32;20198;-59
2023/09/30 07:54:44;;;;;;;20.93;3.07;;;;;;;17.43;85.46;96412.84;4316350;32;20200;-59
2023/09/30 07:57:11;;;;;;;4.27;2.60;;;;;;;17.55;86.87;96417.59;4353109;32;20234;-59
2023/09/30 07:59:37;;;;;;;2.70;2.43;;;;;;;17.50;85.70;96423.91;4345239;32;20181;-59
2023/09/30 08:02:06;;;;;;;2.40;2.20;;;;;;;17.63;87.11;96420.31;4342883;32;20203;-59
2023/09/30 08:04:32;;;;;;;2.43;2.30;;;;;;;17.78;86.33;96430.66;4320246;32;20209;-59
2023/09/30 08:06:58;;;;;;;3.60;1.97;;;;;;;17.70;84.75;96436.78;4360784;32;20224;-59
2023/09/30 08:09:24;;;;;;;2.10;1.80;;;;;;;17.50;84.38;96426.56;4356788;32;20200;-59
2023/09/30 08:11:56;;;;;;;2.33;2.03;;;;;;;17.52;85.76;96429.75;4356127;32;20256;-59
2023/09/30 08:14:22;;;;;;;1.97;1.87;;;;;;;17.71;86.71;96422.25;4359504;32;20181;-59
2023/09/30 08:16:50;;;;;;;8.23;3.33;;;;;;;17.68;86.61;96422.09;4361526;32;20203;-59
2023/09/30 08:19:15;;;;;;;3.13;2.87;;;;;;;17.62;84.62;96421.44;4350303;32;20221;-59
2023/09/30 08:21:41;;;;;;;1.33;1.33;;;;;;;17.67;84.98;96418.59;4338200;32;20184;-60
2023/09/30 08:24:08;;;;;;;1.20;1.20;;;;;;;17.76;82.87;96422.12;4348274;32;20219;-59
2023/09/30 08:26:35;;;;;;;4.97;2.53;;;;;;;17.83;84.10;96427.84;4328423;32;20195;-59
2023/09/30 08:29:02;;;;;;;2.30;2.20;;;;;;;17.85;84.53;96414.91;4337131;32;20185;-59
2023/09/30 08:31:28;;;;;;;3.40;2.57;;;;;;;17.91;85.67;96407.47;4367663;32;20208;-59
2023/09/30 08:33:54;;;;;;;2.77;2.50;;;;;;;17.74;83.08;96405.53;4353599;32;20192;-60
2023/09/30 08:36:21;;;;;;;4.77;3.30;;;;;;;17.80;84.84;96408.88;4351308;32;20201;-59
2023/09/30 08:38:48;;;;;;;3.67;2.47;;;;;;;17.80;84.77;96433.03;4353800;32;20189;-60
2023/09/30 08:41:34;;;;;;;4.97;2.97;;;;;;;17.97;86.35;96435.75;4370164;32;20206;-60
2023/09/30 08:44:04;;;;;;;2.90;2.17;;;;;;;18.05;83.37;96439.56;4351607;32;20243;-60
2023/09/30 08:46:34;;;;;;;3.10;2.80;;;;;;;18.09;83.59;96440.50;4330659;32;20193;-60
2023/09/30 08:49:05;;;;;;;2.13;2.03;;;;;;;18.28;86.54;96459.84;4332249;32;20185;-60
2023/09/30 08:51:57;;;;;;;2.90;2.37;;;;;;;18.17;81.90;96447.81;4338785;32;20222;-60
2023/09/30 08:54:25;;;;;;;6.07;2.87;;;;;;;18.14;81.62;96435.78;4351869;32;20346;-59
2023/09/30 08:56:53;;;;;;;1.97;1.87;;;;;;;18.19;84.01;96448.28;4308999;32;20172;-60
2023/09/30 08:59:19;;;;;;;2.40;2.20;;;;;;;18.15;81.36;96461.53;4321494;32;20182;-59
2023/09/30 09:01:44;;;;;;;3.63;2.60;;;;;;;18.26;80.78;96442.44;4351187;32;20232;-60
2023/09/30 09:04:12;;;;;;;3.27;2.67;;;;;;;18.40;83.94;96445.78;4296330;32;20193;-60
2023/09/30 09:06:38;;;;;;;2.13;2.03;;;;;;;18.30;80.17;96433.44;4329182;32;20198;-59
2023/09/30 09:09:18;;;;;;;2.50;2.40;;;;;;;18.25;81.70;96432.81;4361020;32;20248;-59
2023/09/30 09:11:46;;;;;;;1.93;1.73;;;;;;;18.32;83.16;96428.53;4321450;33;20177;-59
2023/09/30 09:14:16;;;;;;;3.17;2.87;;;;;;;18.27;80.56;96423.34;4329853;32;20193;-59
2023/09/30 09:17:00;;;;;;;2.97;2.77;;;;;;;18.32;81.84;96428.53;4332772;32;20212;-60
2023/09/30 09:19:30;;;;;;;2.00;1.90;;;;;;;18.28;80.50;96440.25;4332211;32;20245;-59
2023/09/30 09:22:15;;;;;;;3.30;3.03;;;;;;;18.36;81.87;96434.06;4361185;32;20188;-59
2023/09/30 09:24:42;;;;;;;3.27;3.03;;;;;;;18.43;82.84;96437.09;4349313;32;20263;-60
2023/09/30 09:27:16;;;;;;;2.27;2.17;;;;;;;18.40;78.80;96424.28;4325735;32;20197;-59
2023/09/30 09:29:49;;;;;;;3.30;3.00;;;;;;;18.45;80.62;96434.87;4335641;32;20232;-59
2023/09/30 09:32:17;;;;;;;4.03;3.70;;;;;;;18.40;79.29;96446.56;4324614;32;20219;-59
2023/09/30 09:35:03;;;;;;;5.13;2.33;;;;;;;18.42;81.36;96449.72;4340849;32;20181;-60
2023/09/30 09:37:32;;;;;;;5.53;2.73;;;;;;;18.43;79.33;96454.00;4319455;32;20215;-60
2023/09/30 09:39:58;;;;;;;4.67;3.70;;;;;;;18.41;80.49;96460.78;4361916;32;20189;-59
2023/09/30 09:42:37;;;;;;;5.43;3.87;;;;;;;18.34;77.44;96455.88;4295701;32;20201;-59
2023/09/30 09:45:05;;;;;;;2.13;2.03;;;;;;;18.40;80.39;96453.84;4305989;32;20193;-59
2023/09/30 09:47:33;;;;;;;5.23;2.60;;;;;;;18.33;80.35;96432.81;4302176;32;20190;-60
2023/09/30 09:50:02;;;;;;;13.80;4.07;;;;;;;18.42;79.67;96430.12;4353564;32;20196;-59
2023/09/30 09:52:29;;;;;;;3.13;2.70;;;;;;;18.53;81.70;96413.38;4286487;32;20201;-59
2023/09/30 09:54:57;;;;;;;4.93;2.97;;;;;;;18.59;79.77;96402.47;4336647;32;20256;-60
2023/09/30 09:57:27;;;;;;;10.23;3.30;;;;;;;18.61;82.08;96389.53;4364307;32;20387;-59
2023/09/30 09:59:56;;;;;;;6.30;2.60;;;;;;;18.65;80.98;96387.78;4366808;32;20193;-59
2023/09/30 10:02:27;;;;;;;6.17;2.87;;;;;;;18.54;78.69;96388.06;4347771;32;20287;-60
2023/09/30 10:04:53;;;;;;;3.90;2.40;;;;;;;18.55;79.99;96380.78;4338390;32;20200;-59
2023/09/30 10:07:52;;;;;;;2.73;2.50;;;;;;;18.58;81.28;96395.50;4370616;32;20188;-60
2023/09/30 10:10:20;;;;;;;24.40;3.97;;;;;;;18.98;87.55;96404.97;4352023;32;20204;-60
2023/09/30 10:12:50;;;;;;;3.10;2.43;;;;;;;19.27;87.24;96400.78;4359568;32;20306;-59
2023/09/30 10:15:28;;;;;;;3.27;3.07;;;;;;;19.31;80.31;96407.88;4346198;32;20255;-59
2023/09/30 10:18:11;;;;;;;3.37;2.03;;;;;;;19.14;73.35;96414.09;4357188;32;20208;-59
2023/09/30 10:20:47;;;;;;;5.40;2.57;;;;;;;18.62;72.94;96416.09;4360176;32;20207;-59
2023/09/30 10:23:37;;;;;;;5.73;3.03;;;;;;;19.05;78.11;96393.72;4356936;32;20187;-59
2023/09/30 10:26:17;;;;;;;2.07;1.97;;;;;;;19.16;77.36;96401.09;4304526;32;20181;-59
2023/09/30 10:28:50;;;;;;;4.37;2.53;;;;;;;19.33;77.84;96410.25;4299950;32;20189;-60
2023/09/30 10:31:24;;;;;;;2.33;2.23;;;;;;;19.41;78.61;96406.72;4332992;32;20299;-60
2023/09/30 10:34:08;;;;;;;2.43;2.23;;;;;;;19.57;78.53;96405.09;4326020;32;20306;-59
2023/09/30 10:36:40;;;;;;;6.43;2.70;;;;;;;19.77;76.01;96393.59;4296553;32;20249;-59
2023/09/30 10:39:18;;;;;;;2.00;1.90;;;;;;;19.81;75.17;96385.66;4352979;32;20201;-60
2023/09/30 10:41:51;;;;;;;1.97;1.87;;;;;;;19.79;75.35;96377.09;4357671;32;20258;-59
2023/09/30 10:44:26;;;;;;;1.93;1.83;;;;;;;19.76;74.44;96381.25;4330126;32;20181;-60
2023/09/30 10:47:00;;;;;;;1.57;1.47;;;;;;;19.27;73.94;96379.25;4350754;32;20196;-60
2023/09/30 10:49:28;;;;;;;1.33;1.27;;;;;;;19.23;73.86;96374.50;4360712;32;20199;-60
2023/09/30 10:51:57;;;;;;;3.20;2.03;;;;;;;19.59;76.78;96375.16;4367446;32;20257;-60
2023/09/30 10:54:47;;;;;;;1.50;1.40;;;;;;;19.74;75.61;96383.50;4353612;32;20211;-59
2023/09/30 10:57:27;;;;;;;2.63;2.43;;;;;;;19.45;66.88;96392.31;4313999;32;20193;-60
2023/09/30 11:00:16;;;;;;;1.60;1.50;;;;;;;19.03;66.47;96399.41;4336034;32;20257;-60
2023/09/30 11:02:51;;;;;;;2.50;2.30;;;;;;;18.84;68.26;96398.97;4344041;32;20230;-58
2023/09/30 11:05:21;;;;;;;4.73;2.37;;;;;;;19.22;77.56;96394.44;4358213;32;20201;-58
2023/09/30 11:08:10;;;;;;;1.63;1.53;;;;;;;19.35;77.27;96403.41;4345596;32;20206;-59
2023/09/30 11:10:50;;;;;;;2.57;2.47;;;;;;;19.58;75.67;96381.66;4373462;32;20195;-58
2023/09/30 11:13:18;;;;;;;1.20;1.20;;;;;;;19.47;68.49;96379.31;4344038;32;20192;-58
2023/09/30 11:15:45;;;;;;;2.03;1.90;;;;;;;19.77;73.53;96366.66;4340843;32;20205;-59
2023/09/30 11:18:21;;;;;;;2.27;2.10;;;;;;;19.81;72.22;96364.91;4344553;32;20219;-59
2023/09/30 11:20:48;;;;;;;2.70;2.13;;;;;;;19.78;70.03;96367.44;4359616;32;20214;-58
2023/09/30 11:23:16;;;;;;;2.13;1.80;;;;;;;19.75;67.51;96378.88;4377459;32;20252;-59
2023/09/30 11:25:46;;;;;;;2.17;1.83;;;;;;;19.84;70.52;96371.53;4349270;32;20205;-58
2023/09/30 11:28:19;;;;;;;5.10;3.13;;;;;;;20.04;69.53;96375.38;4339289;32;20205;-58
2023/09/30 11:31:00;;;;;;;1.60;1.60;;;;;;;20.04;69.05;96372.69;4345359;32;20256;-59
2023/09/30 11:33:28;;;;;;;2.80;2.60;;;;;;;19.87;69.87;96379.75;4314230;32;20189;-61
2023/09/30 11:36:00;;;;;;;3.47;2.73;;;;;;;19.51;68.91;96379.50;4350882;32;20230;-61
2023/09/30 11:38:47;;;;;;;4.33;2.43;;;;;;;19.37;67.86;96382.34;4354351;32;20196;-61
2023/09/30 11:41:21;;;;;;;3.17;2.87;;;;;;;19.17;62.88;96386.53;4369996;32;20215;-61
2023/09/30 11:44:15;;;;;;;8.97;3.03;;;;;;;19.15;68.04;96382.59;4361288;32;20209;-61
2023/09/30 11:47:08;;;;;;;3.50;2.40;;;;;;;19.19;64.79;96389.72;4378062;32;20197;-61